createdAt,value
2023-01-13T00:02:51.714Z,2
2023-01-13T00:31:57.078Z,3
2023-01-13T01:00:56.184Z,2
2023-01-13T01:29:44.263Z,2
2023-01-13T01:58:45.437Z,4
2023-01-13T02:27:43.304Z,2
2023-01-13T02:56:31.674Z,2
2023-01-13T03:25:29.885Z,2
2023-01-13T03:54:25.035Z,2
2023-01-13T04:23:22.983Z,3
2023-01-13T04:52:22.592Z,3
2023-01-13T05:21:26.739Z,2
2023-01-13T05:50:34.827Z,1
2023-01-13T06:19:36.424Z,1
2023-01-13T06:48:43.022Z,1
2023-01-13T07:17:43.719Z,2
2023-01-13T07:46:48.543Z,2
2023-01-13T08:15:59.096Z,3
2023-01-13T08:45:05.531Z,5
2023-01-13T09:14:10.412Z,4
2023-01-13T09:43:08.603Z,4
2023-01-13T10:12:20.263Z,4
2023-01-13T10:41:00.034Z,1
2023-01-13T11:10:04.020Z,2
2023-01-13T11:39:15.064Z,4
2023-01-13T12:08:20.813Z,3
2023-01-13T12:37:23.645Z,4
2023-01-13T13:06:19.907Z,4
2023-01-13T13:35:33.119Z,4
2023-01-13T14:04:40.291Z,4
2023-01-13T14:33:39.221Z,4
2023-01-13T15:02:42.646Z,4
2023-01-13T15:31:35.701Z,5
2023-01-13T15:59:51.057Z,7
2023-01-13T16:27:48.989Z,4
2023-01-13T16:55:58.799Z,3
2023-01-13T17:24:21.725Z,3
2023-01-13T17:52:39.768Z,5
2023-01-13T18:21:00.164Z,4
2023-01-13T18:49:24.352Z,7
2023-01-13T19:17:39.060Z,7
2023-01-13T19:45:49.707Z,10
2023-01-13T20:14:09.075Z,5
2023-01-13T20:42:27.253Z,7
2023-01-13T21:10:46.399Z,8
2023-01-13T21:39:08.646Z,7
2023-01-13T22:07:26.739Z,6
2023-01-13T22:35:47.560Z,5
2023-01-13T23:04:09.924Z,7
2023-01-13T23:32:24.306Z,7
